Michiana Shores, Indiana
Current Conditions -  °F | °C
As of 3:35 PM on Friday 31 Oct 2014 (Local Time) from KMGC Reporting Station
Light Rain Light Rain  
Wind Chill: 23°   Ceiling: 2000
Heat Index: 36°   Visibility: 7mi
Dew Point: 36°   Wind: 26mph
Humidity: 100%   Direction: 10°N
Pressure: 30.1"   Gusts: 35mph
Location:  41.687°N, 86.8677°W
Report Text: KMGC 312035Z AUTO 01023G30KT 7SM -RA SCT014 OVC020 02/02 A3010 RMK AO2
Loading
Personal Weather Stations






























Interactive Weather Map
Tropical Storm Tracking
New forecast layout! Learn more

10-Day Weather Forecast

Advertisements
Track Severe Weather on mobile